Time;durP1;ratioP1;P1;durP2;ratioP2;P2;SDS_P1;SDS_P2;PMS_P1;PMS_P2;Temp;Humidity;BMP_temperature;BMP_pressure;BME280_temperature;BME280_humidity;BME280_pressure;Samples;Min_cycle;Max_cycle;Signal;HPM_P1;HPM_P2
2023/05/22 00:02:24;;;;;;;0.40;0.40;;;23.00;47.20;;;;;;6196174;28;20054;-51
2023/05/22 00:05:26;;;;;;;0.52;0.52;;;23.10;47.50;;;;;;6198633;28;20047;-49
2023/05/22 00:08:29;;;;;;;0.50;0.40;;;22.80;47.20;;;;;;6200825;28;20046;-53
2023/05/22 00:11:33;;;;;;;0.40;0.40;;;23.00;47.40;;;;;;6198995;28;20050;-50
2023/05/22 00:14:35;;;;;;;0.43;0.40;;;23.00;47.40;;;;;;6197318;28;20042;-49
2023/05/22 00:17:36;;;;;;;0.75;0.50;;;22.60;47.40;;;;;;6200847;28;20031;-49
2023/05/22 00:20:39;;;;;;;0.63;0.50;;;23.00;47.50;;;;;;6207861;28;20058;-48
2023/05/22 00:23:41;;;;;;;0.73;0.60;;;22.90;47.50;;;;;;6209261;28;20046;-53
2023/05/22 00:26:43;;;;;;;0.50;0.45;;;22.70;47.40;;;;;;6203678;28;20043;-47
2023/05/22 00:29:44;;;;;;;;;;;23.10;47.70;;;;;;6208766;28;20053;-48
2023/05/22 00:32:45;;;;;;;0.40;0.40;;;22.80;47.70;;;;;;6209288;28;19932;-53
2023/05/22 00:35:48;;;;;;;0.52;0.50;;;22.90;47.70;;;;;;6209748;28;20042;-50
2023/05/22 00:38:49;;;;;;;0.32;0.30;;;22.90;47.60;;;;;;6209318;28;20046;-50
2023/05/22 00:41:51;;;;;;;0.47;0.40;;;22.70;47.60;;;;;;6209101;28;20038;-48
2023/05/22 00:44:53;;;;;;;;;;;22.90;47.70;;;;;;6210092;28;20068;-50
2023/05/22 00:47:54;;;;;;;0.47;0.40;;;22.80;47.90;;;;;;6207320;28;19926;-46
2023/05/22 00:50:58;;;;;;;0.77;0.55;;;22.40;47.50;;;;;;6207407;28;20045;-47
2023/05/22 00:54:00;;;;;;;0.45;0.45;;;22.70;47.60;;;;;;6211127;28;20038;-53
2023/05/22 00:57:02;;;;;;;0.70;0.70;;;22.80;47.70;;;;;;6216524;28;20149;-47
2023/05/22 01:00:04;;;;;;;0.50;0.40;;;22.70;47.50;;;;;;6212030;28;20034;-50
2023/05/22 01:03:09;;;;;;;0.80;0.50;;;22.70;47.40;;;;;;6210018;28;20346;-50
2023/05/22 01:06:12;;;;;;;0.30;0.30;;;22.90;47.60;;;;;;6221750;28;20145;-54
2023/05/22 01:09:13;;;;;;;0.40;0.40;;;22.60;47.40;;;;;;6204372;28;20625;-53
2023/05/22 01:12:23;;;;;;;0.40;0.40;;;22.80;47.70;;;;;;6238302;23;20056;-58
2023/05/22 01:15:34;;;;;;;0.40;0.30;;;22.80;47.70;;;;;;6215580;28;20038;-58
2023/05/22 01:18:45;;;;;;;0.40;0.30;;;22.40;47.40;;;;;;6216901;28;20038;-58
2023/05/22 01:22:04;;;;;;;0.60;0.43;;;22.80;47.70;;;;;;6215182;28;20419;-58
2023/05/22 01:25:35;;;;;;;0.40;0.40;;;22.30;47.40;;;;;;6216987;28;20030;-58
2023/05/22 01:29:01;;;;;;;0.68;0.50;;;22.80;47.70;;;;;;6217676;28;20076;-58
2023/05/22 01:32:04;;;;;;;0.82;0.55;;;22.80;47.70;;;;;;6217198;28;20424;-58
2023/05/22 01:35:10;;;;;;;0.60;0.60;;;22.70;47.70;;;;;;6217585;28;20404;-58
2023/05/22 01:38:12;;;;;;;0.50;0.50;;;22.30;47.40;;;;;;6217800;28;20046;-58
2023/05/22 01:41:18;;;;;;;0.68;0.50;;;22.80;47.90;;;;;;6216293;28;20060;-58
2023/05/22 01:44:22;;;;;;;0.50;0.40;;;22.70;47.90;;;;;;6217011;28;20446;-58
2023/05/22 01:47:24;;;;;;;0.50;0.40;;;22.70;47.60;;;;;;6217118;28;20258;-58
2023/05/22 01:50:26;;;;;;;0.55;0.50;;;22.60;47.90;;;;;;6217391;28;20096;-58
2023/05/22 01:53:41;;;;;;;0.57;0.40;;;22.60;47.90;;;;;;6217266;28;20042;-58
2023/05/22 01:56:47;;;;;;;0.63;0.50;;;22.20;47.60;;;;;;6207823;28;20699;-58
2023/05/22 01:59:53;;;;;;;0.60;0.50;;;22.60;47.80;;;;;;6190937;28;20394;-58
2023/05/22 02:03:00;;;;;;;0.57;0.43;;;22.50;47.70;;;;;;6190935;28;20049;-58
2023/05/22 02:06:05;;;;;;;0.43;0.40;;;22.50;48.50;;;;;;6190991;28;20042;-58
2023/05/22 02:09:07;;;;;;;0.90;0.50;;;22.70;47.80;;;;;;6189779;28;20077;-58
2023/05/22 02:12:13;;;;;;;0.40;0.40;;;22.70;47.90;;;;;;6192579;28;20049;-58
2023/05/22 02:15:15;;;;;;;0.73;0.52;;;22.70;48.10;;;;;;6192656;28;20042;-58
2023/05/22 02:18:21;;;;;;;0.57;0.50;;;22.70;48.00;;;;;;6192348;28;20057;-58
2023/05/22 02:21:24;;;;;;;0.70;0.45;;;22.60;47.90;;;;;;6192506;28;20057;-58
2023/05/22 02:24:25;;;;;;;;;;;22.70;48.10;;;;;;6192684;28;20046;-58
2023/05/22 02:27:27;;;;;;;0.60;0.50;;;22.60;48.30;;;;;;6192494;28;20103;-58
2023/05/22 02:30:29;;;;;;;;;;;22.60;48.20;;;;;;6192964;28;20337;-58
2023/05/22 02:33:31;;;;;;;0.55;0.50;;;22.40;48.50;;;;;;6192239;28;20048;-58
2023/05/22 02:36:33;;;;;;;0.45;0.45;;;22.60;48.30;;;;;;6191065;28;20413;-58
2023/05/22 02:39:34;;;;;;;;;;;22.60;48.40;;;;;;6191918;28;20492;-58
2023/05/22 02:42:36;;;;;;;0.40;0.40;;;22.20;48.40;;;;;;6190683;28;20304;-58
2023/05/22 02:45:37;;;;;;;0.40;0.30;;;22.60;48.50;;;;;;6191456;28;20044;-58
2023/05/22 02:48:42;;;;;;;0.70;0.65;;;22.50;48.40;;;;;;6191247;28;20066;-58
2023/05/22 02:51:46;;;;;;;0.82;0.77;;;22.50;48.60;;;;;;6191862;28;20056;-58
2023/05/22 02:54:48;;;;;;;0.70;0.60;;;22.50;48.50;;;;;;6192093;28;20038;-58
2023/05/22 02:57:49;;;;;;;0.50;0.50;;;22.60;48.70;;;;;;6191740;28;20464;-58
2023/05/22 03:00:52;;;;;;;;;;;22.50;48.70;;;;;;6191797;28;20418;-58
2023/05/22 03:03:54;;;;;;;0.57;0.47;;;22.60;49.00;;;;;;6191621;28;20130;-58
2023/05/22 03:06:56;;;;;;;0.50;0.50;;;22.10;48.50;;;;;;6191300;28;20066;-58
2023/05/22 03:09:57;;;;;;;;;;;22.40;49.80;;;;;;6191973;28;20053;-58
2023/05/22 03:13:00;;;;;;;0.60;0.57;;;22.40;50.10;;;;;;6190537;28;20225;-58
2023/05/22 03:16:02;;;;;;;;;;;22.10;49.70;;;;;;6191667;28;20041;-58
2023/05/22 03:19:08;;;;;;;0.73;0.60;;;22.10;49.80;;;;;;6190449;28;20437;-58
2023/05/22 03:22:10;;;;;;;0.45;0.40;;;22.40;49.50;;;;;;6189779;28;20061;-54
2023/05/22 03:25:15;;;;;;;0.52;0.43;;;22.40;48.90;;;;;;6191845;28;20113;-51
2023/05/22 03:28:16;;;;;;;0.80;0.73;;;22.30;47.50;;;;;;6192149;28;20053;-51
2023/05/22 03:31:18;;;;;;;0.60;0.57;;;22.30;48.80;;;;;;6192285;28;20073;-51
2023/05/22 03:34:36;;;;;;;0.50;0.50;;;22.30;48.90;;;;;;6191346;28;20045;-53
2023/05/22 03:37:39;;;;;;;0.60;0.50;;;22.40;48.90;;;;;;6191634;28;20038;-50
2023/05/22 03:40:40;;;;;;;;;;;22.40;49.00;;;;;;6192576;28;20069;-48
2023/05/22 03:43:43;;;;;;;0.82;0.60;;;22.40;49.10;;;;;;6191417;28;19928;-48
2023/05/22 03:46:47;;;;;;;1.55;0.57;;;22.40;49.00;;;;;;6191967;28;20037;-55
2023/05/22 03:49:50;;;;;;;1.15;0.88;;;22.40;47.50;;;;;;6191789;28;20491;-53
2023/05/22 03:52:51;;;;;;;1.08;0.60;;;22.40;47.70;;;;;;6191710;28;20116;-52
2023/05/22 03:55:56;;;;;;;0.80;0.60;;;22.20;47.70;;;;;;6191634;28;20093;-54
2023/05/22 03:58:59;;;;;;;0.85;0.70;;;22.30;47.80;;;;;;6192079;28;20038;-54
2023/05/22 04:02:00;;;;;;;;;;;22.40;47.90;;;;;;6192012;28;20046;-54
2023/05/22 04:05:07;;;;;;;0.55;0.55;;;22.40;48.10;;;;;;6190320;28;19921;-53
2023/05/22 04:08:10;;;;;;;0.40;0.40;;;22.40;47.80;;;;;;6190329;28;20359;-50
2023/05/22 04:11:14;;;;;;;0.80;0.68;;;22.50;48.00;;;;;;6186213;28;20093;-53
2023/05/22 04:14:16;;;;;;;0.60;0.60;;;22.20;47.80;;;;;;6185753;28;20042;-54
2023/05/22 04:17:20;;;;;;;0.65;0.50;;;22.30;48.00;;;;;;6187961;28;20112;-52
2023/05/22 04:20:22;;;;;;;;;;;22.40;48.00;;;;;;6189600;28;20042;-54
2023/05/22 04:23:25;;;;;;;0.77;0.52;;;22.00;48.10;;;;;;6189391;28;20008;-54
2023/05/22 04:26:28;;;;;;;;;;;22.30;48.10;;;;;;6192509;28;20088;-52
2023/05/22 04:29:30;;;;;;;0.70;0.60;;;22.00;48.10;;;;;;6193228;28;19932;-55
2023/05/22 04:32:31;;;;;;;;;;;22.00;47.90;;;;;;6194014;28;20039;-49
2023/05/22 04:35:34;;;;;;;0.80;0.50;;;22.50;48.60;;;;;;6192777;28;20450;-47
2023/05/22 04:38:40;;;;;;;0.70;0.50;;;22.30;48.30;;;;;;6193423;28;20497;-47
2023/05/22 04:41:41;;;;;;;0.57;0.57;;;22.30;48.40;;;;;;6194099;28;20374;-47
2023/05/22 04:44:42;;;;;;;;;;;22.30;48.40;;;;;;6193223;28;20062;-47
2023/05/22 04:47:48;;;;;;;0.77;0.55;;;22.40;48.70;;;;;;6192099;28;19929;-49
2023/05/22 04:50:53;;;;;;;0.47;0.47;;;22.30;48.40;;;;;;6183410;28;20174;-47
2023/05/22 04:53:54;;;;;;;0.60;0.50;;;22.30;48.50;;;;;;6188499;28;20547;-50
2023/05/22 04:56:56;;;;;;;;;;;22.20;48.50;;;;;;6194732;28;20038;-48
2023/05/22 04:59:57;;;;;;;0.70;0.63;;;22.50;48.90;;;;;;6194277;28;19922;-48
2023/05/22 05:02:59;;;;;;;;;;;22.20;48.50;;;;;;6194575;28;20708;-50
2023/05/22 05:06:04;;;;;;;0.60;0.60;;;22.30;48.70;;;;;;6193251;28;19922;-47
2023/05/22 05:09:06;;;;;;;0.80;0.60;;;22.30;48.60;;;;;;6192553;28;20130;-48
2023/05/22 05:12:07;;;;;;;1.08;0.80;;;22.10;48.50;;;;;;6193654;28;20121;-47
2023/05/22 05:15:10;;;;;;;0.57;0.50;;;21.80;48.50;;;;;;6193159;28;20050;-49
2023/05/22 05:18:11;;;;;;;0.82;0.55;;;22.10;48.70;;;;;;6192226;28;20045;-48
2023/05/22 05:21:16;;;;;;;0.68;0.50;;;22.20;48.70;;;;;;6190610;28;20121;-47
2023/05/22 05:24:18;;;;;;;0.93;0.50;;;22.20;48.70;;;;;;6193838;28;20034;-50
2023/05/22 05:27:21;;;;;;;0.70;0.60;;;22.20;48.80;;;;;;6193652;28;20034;-46
2023/05/22 05:30:26;;;;;;;0.77;0.50;;;22.20;48.80;;;;;;6192989;28;20074;-50
2023/05/22 05:33:41;;;;;;;0.80;0.60;;;22.20;48.80;;;;;;6192223;28;20561;-47
2023/05/22 05:36:51;;;;;;;0.80;0.80;;;22.20;49.20;;;;;;6190218;28;20300;-46
2023/05/22 05:39:57;;;;;;;0.75;0.57;;;21.90;48.50;;;;;;6192720;28;20412;-49
2023/05/22 05:42:59;;;;;;;0.65;0.50;;;22.40;48.90;;;;;;6189832;28;20043;-47
2023/05/22 05:46:03;;;;;;;1.05;0.70;;;22.20;48.90;;;;;;6190539;28;20065;-48
2023/05/22 05:49:08;;;;;;;0.40;0.40;;;22.40;49.10;;;;;;6189346;28;20066;-48
2023/05/22 05:52:12;;;;;;;1.70;0.60;;;22.30;48.90;;;;;;6190835;28;20425;-47
2023/05/22 05:55:15;;;;;;;1.42;0.57;;;22.20;49.00;;;;;;6189318;28;20057;-48
2023/05/22 05:58:17;;;;;;;0.70;0.60;;;22.30;49.10;;;;;;6185079;28;20040;-49
2023/05/22 06:01:34;;;;;;;0.70;0.57;;;22.10;49.10;;;;;;6188096;28;20169;-50
2023/05/22 06:04:36;;;;;;;0.85;0.50;;;21.90;48.80;;;;;;6186211;28;20453;-50
2023/05/22 06:07:39;;;;;;;0.70;0.70;;;22.10;49.10;;;;;;6187874;28;20351;-51
2023/05/22 06:10:44;;;;;;;0.70;0.50;;;22.30;49.10;;;;;;6177918;28;21026;-48
2023/05/22 06:13:48;;;;;;;0.52;0.43;;;22.30;49.20;;;;;;6181003;28;20683;-49
2023/05/22 06:16:49;;;;;;;0.93;0.60;;;22.10;48.90;;;;;;6170241;28;20046;-50
2023/05/22 06:19:51;;;;;;;0.70;0.52;;;22.30;49.30;;;;;;6185074;28;20172;-50
2023/05/22 06:22:54;;;;;;;0.75;0.47;;;22.20;49.80;;;;;;6188113;28;20042;-48
2023/05/22 06:25:56;;;;;;;0.80;0.60;;;22.30;49.20;;;;;;6185011;28;20077;-48
2023/05/22 06:29:00;;;;;;;1.02;0.60;;;22.30;49.40;;;;;;6185562;28;20146;-47
2023/05/22 06:32:05;;;;;;;0.60;0.50;;;22.30;49.50;;;;;;6185417;28;20445;-47
2023/05/22 06:35:10;;;;;;;0.82;0.60;;;22.30;49.70;;;;;;6179374;28;20133;-47
2023/05/22 06:38:14;;;;;;;0.90;0.80;;;22.40;49.60;;;;;;6180054;28;20078;-47
2023/05/22 06:41:17;;;;;;;0.57;0.40;;;22.40;49.70;;;;;;6183645;28;20034;-47
2023/05/22 06:44:19;;;;;;;0.90;0.60;;;22.20;49.50;;;;;;6175292;28;20045;-45
2023/05/22 06:47:28;;;;;;;0.52;0.38;;;22.00;49.60;;;;;;6174384;28;20031;-46
2023/05/22 06:50:30;;;;;;;0.43;0.40;;;22.40;49.70;;;;;;6174922;28;20042;-47
2023/05/22 06:53:32;;;;;;;0.60;0.50;;;22.50;49.50;;;;;;6172633;28;20113;-45
2023/05/22 06:56:34;;;;;;;0.50;0.50;;;22.30;49.60;;;;;;6168346;28;20101;-45
2023/05/22 06:59:40;;;;;;;0.55;0.50;;;22.60;49.40;;;;;;6165471;28;20038;-40
2023/05/22 07:02:46;;;;;;;0.47;0.40;;;22.10;50.00;;;;;;6137812;28;20628;-43
2023/05/22 07:05:58;;;;;;;0.82;0.60;;;22.50;50.80;;;;;;6153982;28;20724;-45
2023/05/22 07:09:00;;;;;;;0.98;0.57;;;22.60;51.60;;;;;;6145217;28;20031;-45
2023/05/22 07:12:02;;;;;;;0.70;0.50;;;22.60;52.10;;;;;;6159370;28;20050;-48
2023/05/22 07:15:04;;;;;;;0.40;0.30;;;22.50;51.70;;;;;;6141163;28;20070;-51
2023/05/22 07:18:08;;;;;;;1.25;0.55;;;22.30;51.30;;;;;;6140957;28;20694;-49
2023/05/22 07:21:09;;;;;;;1.05;0.63;;;22.60;51.90;;;;;;6162332;28;20030;-44
2023/05/22 07:24:12;;;;;;;0.52;0.52;;;22.50;51.40;;;;;;6132429;28;20623;-46
2023/05/22 07:27:18;;;;;;;0.50;0.50;;;22.50;50.40;;;;;;6161868;28;20034;-50
2023/05/22 07:30:23;;;;;;;1.65;0.60;;;22.70;50.60;;;;;;6148666;28;20045;-46
2023/05/22 07:33:25;;;;;;;1.15;0.60;;;22.60;50.30;;;;;;6168379;28;20113;-45
2023/05/22 07:36:28;;;;;;;0.60;0.50;;;22.70;50.20;;;;;;6143324;28;20050;-47
2023/05/22 07:39:30;;;;;;;0.70;0.60;;;22.30;49.80;;;;;;6135451;28;20852;-43
2023/05/22 07:42:33;;;;;;;1.02;0.50;;;21.60;49.40;;;;;;6139584;28;20034;-44
2023/05/22 07:45:38;;;;;;;0.50;0.50;;;22.70;49.80;;;;;;6149727;28;20034;-46
2023/05/22 07:48:46;;;;;;;1.02;0.50;;;22.70;49.80;;;;;;6168568;28;20674;-47
2023/05/22 07:51:50;;;;;;;0.80;0.70;;;22.90;48.70;;;;;;6160021;28;20050;-44
2023/05/22 07:54:53;;;;;;;0.70;0.60;;;22.60;49.30;;;;;;6164536;28;20034;-42
2023/05/22 07:57:55;;;;;;;0.60;0.50;;;22.50;49.10;;;;;;6173022;28;20121;-46
2023/05/22 08:01:06;;;;;;;1.27;0.50;;;22.80;49.80;;;;;;6159907;28;20034;-44
2023/05/22 08:04:10;;;;;;;0.90;0.55;;;22.90;49.00;;;;;;6163403;28;20117;-45
2023/05/22 08:07:12;;;;;;;0.60;0.50;;;22.80;49.00;;;;;;6161145;28;20694;-47
2023/05/22 08:10:16;;;;;;;;;;;22.70;48.80;;;;;;6163323;28;20042;-44
2023/05/22 08:13:18;;;;;;;0.75;0.52;;;23.30;49.30;;;;;;6165389;28;20530;-44
2023/05/22 08:16:19;;;;;;;0.68;0.50;;;23.00;48.60;;;;;;6166331;28;20038;-48
2023/05/22 08:19:20;;;;;;;;;;;22.90;49.10;;;;;;6170501;28;20046;-45
2023/05/22 08:22:22;;;;;;;1.45;0.50;;;22.70;49.00;;;;;;6164344;28;19922;-44
2023/05/22 08:25:24;;;;;;;0.50;0.30;;;23.00;48.70;;;;;;6170436;28;20128;-46
2023/05/22 08:28:26;;;;;;;4.00;0.55;;;22.70;48.20;;;;;;6165779;28;20034;-46
2023/05/22 08:31:28;;;;;;;;;;;23.00;48.60;;;;;;6163406;28;20053;-44
2023/05/22 08:34:33;;;;;;;0.68;0.60;;;23.30;48.70;;;;;;6169647;28;19930;-45
2023/05/22 08:37:34;;;;;;;0.57;0.50;;;23.10;48.40;;;;;;6169478;28;20054;-46
2023/05/22 08:40:38;;;;;;;0.93;0.63;;;23.00;48.50;;;;;;6166669;28;20034;-46
2023/05/22 08:43:41;;;;;;;0.65;0.50;;;24.00;49.00;;;;;;6164410;28;20074;-44
2023/05/22 08:46:44;;;;;;;0.93;0.47;;;23.20;48.50;;;;;;6173687;28;20034;-46
2023/05/22 08:49:50;;;;;;;0.77;0.52;;;23.30;48.80;;;;;;6177817;28;20042;-47
2023/05/22 08:52:53;;;;;;;1.65;0.60;;;23.20;48.40;;;;;;6171437;28;20101;-47
2023/05/22 08:55:56;;;;;;;0.73;0.50;;;23.00;48.50;;;;;;6163873;28;20597;-45
2023/05/22 08:58:59;;;;;;;1.25;0.70;;;23.00;48.30;;;;;;6146757;28;20070;-43
2023/05/22 09:02:03;;;;;;;0.60;0.50;;;23.20;48.30;;;;;;6166427;28;20042;-45
2023/05/22 09:05:08;;;;;;;0.70;0.57;;;23.10;48.70;;;;;;6169160;28;20439;-44
2023/05/22 09:08:10;;;;;;;2.03;0.80;;;23.30;49.20;;;;;;6148998;28;20069;-45
2023/05/22 09:11:23;;;;;;;2.63;0.65;;;23.30;49.40;;;;;;6146424;28;20046;-45
2023/05/22 09:14:24;;;;;;;0.88;0.60;;;23.40;49.00;;;;;;6144873;28;20168;-44
2023/05/22 09:17:28;;;;;;;1.80;0.70;;;23.40;49.40;;;;;;6144398;28;20046;-44
2023/05/22 09:20:34;;;;;;;1.30;0.90;;;23.50;47.30;;;;;;6190922;28;20041;-45
2023/05/22 09:23:36;;;;;;;1.40;0.70;;;23.40;48.80;;;;;;6178438;28;20218;-43
2023/05/22 09:26:39;;;;;;;0.77;0.63;;;23.60;49.10;;;;;;6169595;28;20038;-51
2023/05/22 09:29:51;;;;;;;1.05;0.80;;;23.60;48.70;;;;;;6166194;28;20856;-50
2023/05/22 09:32:56;;;;;;;1.33;0.90;;;23.30;49.40;;;;;;6174597;28;20457;-51
2023/05/22 09:35:58;;;;;;;1.75;0.60;;;23.70;49.00;;;;;;6182520;28;20066;-50
2023/05/22 09:39:01;;;;;;;2.38;0.63;;;23.70;48.90;;;;;;6179449;28;20034;-50
2023/05/22 09:42:06;;;;;;;1.80;0.68;;;23.70;48.90;;;;;;6174464;28;20046;-54
2023/05/22 09:45:08;;;;;;;1.40;0.80;;;23.70;48.70;;;;;;6177305;28;20720;-52
2023/05/22 09:48:11;;;;;;;1.35;0.90;;;23.60;48.90;;;;;;6180680;28;20027;-51
2023/05/22 09:51:13;;;;;;;1.13;0.80;;;23.70;48.70;;;;;;6174778;28;20042;-51
2023/05/22 09:54:16;;;;;;;2.95;0.98;;;23.80;48.60;;;;;;6169052;28;20042;-55
2023/05/22 09:57:19;;;;;;;1.00;0.90;;;23.80;48.90;;;;;;6159600;28;20054;-56
2023/05/22 10:00:23;;;;;;;1.20;0.90;;;23.40;48.10;;;;;;6160210;28;20635;-57
2023/05/22 10:03:26;;;;;;;1.45;0.70;;;23.90;48.40;;;;;;6169638;28;20093;-54
2023/05/22 10:06:30;;;;;;;1.10;0.90;;;23.70;48.70;;;;;;6163276;28;20100;-54
2023/05/22 10:09:34;;;;;;;1.67;1.00;;;23.90;48.30;;;;;;6158324;28;20038;-55
2023/05/22 10:12:41;;;;;;;1.20;0.90;;;23.90;48.40;;;;;;6121086;28;20672;-54
2023/05/22 10:15:44;;;;;;;2.58;0.98;;;23.90;48.20;;;;;;6154154;28;20038;-53
2023/05/22 10:18:47;;;;;;;1.80;0.90;;;23.70;48.00;;;;;;6148456;28;20031;-54
2023/05/22 10:21:50;;;;;;;1.45;0.90;;;23.90;48.10;;;;;;6144334;28;20034;-51
2023/05/22 10:24:56;;;;;;;2.00;1.10;;;24.00;48.30;;;;;;6145928;28;20069;-53
2023/05/22 10:27:58;;;;;;;1.45;0.70;;;23.80;47.60;;;;;;6157384;28;20129;-53
2023/05/22 10:31:04;;;;;;;0.93;0.80;;;24.10;48.10;;;;;;6152571;28;20061;-55
2023/05/22 10:34:29;;;;;;;1.08;0.80;;;24.00;47.60;;;;;;6164963;28;20069;-50
2023/05/22 10:37:44;;;;;;;2.08;1.08;;;24.10;47.70;;;;;;6166917;28;20046;-54
2023/05/22 10:40:46;;;;;;;1.90;1.48;;;24.10;47.20;;;;;;6164956;28;20068;-53
2023/05/22 10:43:49;;;;;;;2.60;1.00;;;23.90;47.20;;;;;;6169527;28;20049;-52
2023/05/22 10:46:51;;;;;;;1.67;1.00;;;24.20;47.30;;;;;;6163483;28;20735;-53
2023/05/22 10:50:04;;;;;;;1.77;0.90;;;24.00;47.30;;;;;;6169140;28;20061;-51
2023/05/22 10:53:22;;;;;;;1.92;1.10;;;24.20;47.30;;;;;;6170668;28;20038;-50
2023/05/22 10:56:32;;;;;;;1.33;0.73;;;23.70;47.10;;;;;;6168399;28;20448;-54
2023/05/22 10:59:34;;;;;;;1.88;1.23;;;24.20;47.50;;;;;;6144616;28;20035;-52
2023/05/22 11:02:39;;;;;;;2.10;1.10;;;24.20;47.40;;;;;;6156691;28;20712;-53
2023/05/22 11:05:41;;;;;;;2.22;1.17;;;24.10;47.60;;;;;;6128215;28;20699;-52
2023/05/22 11:08:42;;;;;;;1.55;1.13;;;24.20;47.50;;;;;;6134185;28;20069;-52
2023/05/22 11:11:44;;;;;;;3.28;1.35;;;24.10;47.30;;;;;;6135432;28;20038;-52
2023/05/22 11:14:50;;;;;;;1.95;1.27;;;24.10;47.30;;;;;;6156357;28;20050;-54
2023/05/22 11:17:51;;;;;;;1.50;1.13;;;24.20;47.70;;;;;;6154178;28;20038;-51
2023/05/22 11:20:53;;;;;;;1.60;1.02;;;24.00;47.10;;;;;;6165463;28;20069;-53
2023/05/22 11:23:59;;;;;;;2.03;1.05;;;24.20;47.30;;;;;;6137908;28;20026;-51
2023/05/22 11:27:01;;;;;;;1.50;1.00;;;24.00;47.10;;;;;;6138546;28;20038;-52
2023/05/22 11:30:04;;;;;;;1.30;1.10;;;24.30;47.30;;;;;;6149921;28;20843;-53
2023/05/22 11:33:05;;;;;;;2.80;0.80;;;23.90;47.30;;;;;;6134877;28;20047;-51
2023/05/22 11:36:08;;;;;;;2.72;1.30;;;24.30;47.30;;;;;;6163402;28;20035;-53
2023/05/22 11:39:14;;;;;;;2.03;1.10;;;24.40;47.50;;;;;;6161291;28;20034;-51
2023/05/22 11:42:17;;;;;;;1.83;1.13;;;24.30;47.00;;;;;;6157607;28;20035;-51
2023/05/22 11:45:20;;;;;;;2.03;1.10;;;24.30;47.50;;;;;;6160704;28;20101;-55
2023/05/22 11:48:23;;;;;;;2.20;1.30;;;24.50;47.20;;;;;;6164820;28;20559;-53
2023/05/22 11:51:24;;;;;;;2.03;1.30;;;24.30;46.90;;;;;;6167157;28;20046;-52
2023/05/22 11:54:30;;;;;;;2.35;1.35;;;24.30;47.00;;;;;;6166759;28;20723;-52
2023/05/22 11:57:34;;;;;;;1.48;1.20;;;24.30;47.00;;;;;;6163834;28;20045;-56
2023/05/22 12:00:37;;;;;;;1.38;1.15;;;24.30;46.90;;;;;;6156782;28;20038;-54
2023/05/22 12:03:39;;;;;;;3.17;1.27;;;24.20;46.80;;;;;;6154611;28;20070;-58
2023/05/22 12:06:43;;;;;;;2.05;1.38;;;24.40;47.10;;;;;;6163317;28;20042;-57
2023/05/22 12:09:45;;;;;;;2.47;1.40;;;24.40;46.90;;;;;;6162275;28;20041;-56
2023/05/22 12:12:47;;;;;;;2.33;1.55;;;24.30;47.10;;;;;;6161481;28;21023;-57
2023/05/22 12:15:49;;;;;;;3.65;1.45;;;24.50;47.00;;;;;;6153288;28;20846;-58
2023/05/22 12:18:52;;;;;;;3.15;1.50;;;24.00;46.60;;;;;;6154519;28;20163;-58
2023/05/22 12:21:54;;;;;;;2.17;1.23;;;25.70;47.50;;;;;;6154645;28;20432;-57
2023/05/22 12:25:01;;;;;;;1.90;1.17;;;24.10;46.50;;;;;;6169097;28;20042;-57
2023/05/22 12:28:05;;;;;;;2.28;1.38;;;24.50;46.40;;;;;;6171758;28;20050;-57
2023/05/22 12:31:07;;;;;;;2.67;1.65;;;24.60;46.90;;;;;;6173443;28;20695;-59
2023/05/22 12:34:12;;;;;;;1.90;1.20;;;24.60;47.20;;;;;;6165570;28;20701;-58
2023/05/22 12:37:19;;;;;;;3.05;1.40;;;24.60;47.00;;;;;;6180210;28;20568;-58
2023/05/22 12:40:21;;;;;;;1.90;1.40;;;24.50;47.10;;;;;;6182400;28;20042;-59
2023/05/22 12:43:24;;;;;;;1.50;1.40;;;24.70;47.20;;;;;;6176983;28;20038;-59
2023/05/22 12:46:26;;;;;;;1.85;1.27;;;24.20;46.60;;;;;;6164812;28;20042;-58
2023/05/22 12:49:27;;;;;;;1.33;1.00;;;24.70;47.10;;;;;;6169939;28;20034;-58
2023/05/22 12:52:29;;;;;;;1.95;1.20;;;24.50;47.10;;;;;;6172217;28;20101;-54
2023/05/22 12:55:30;;;;;;;5.15;1.85;;;24.70;46.90;;;;;;6188532;28;20050;-55
2023/05/22 12:58:32;;;;;;;2.75;1.40;;;24.70;46.80;;;;;;6181630;28;20038;-55
2023/05/22 13:01:34;;;;;;;2.30;1.40;;;24.60;46.90;;;;;;6176069;28;20276;-57
2023/05/22 13:04:35;;;;;;;2.33;1.35;;;23.60;46.10;;;;;;6180062;28;20031;-56
2023/05/22 13:07:37;;;;;;;3.08;1.30;;;24.80;47.00;;;;;;6179561;28;20434;-57
2023/05/22 13:10:39;;;;;;;3.63;1.70;;;24.70;46.90;;;;;;6164707;28;20517;-59
2023/05/22 13:13:40;;;;;;;1.80;1.30;;;24.40;46.80;;;;;;6158141;28;20604;-58
2023/05/22 13:16:42;;;;;;;2.05;1.38;;;24.30;46.70;;;;;;6157793;28;20030;-56
2023/05/22 13:19:44;;;;;;;2.63;1.40;;;24.50;46.90;;;;;;6153884;28;20059;-56
2023/05/22 13:22:45;;;;;;;2.33;1.60;;;25.00;47.60;;;;;;6149213;28;20046;-57
2023/05/22 13:25:47;;;;;;;2.05;1.30;;;25.10;47.30;;;;;;6158865;28;20137;-56
2023/05/22 13:28:51;;;;;;;3.83;1.38;;;24.90;47.20;;;;;;6176068;28;20034;-55
2023/05/22 13:31:53;;;;;;;2.90;1.77;;;24.80;47.00;;;;;;6197154;28;20045;-54
2023/05/22 13:34:55;;;;;;;2.03;1.40;;;24.90;47.20;;;;;;6186598;28;20042;-55
2023/05/22 13:37:56;;;;;;;2.88;1.60;;;24.90;47.20;;;;;;6202591;28;20054;-52
2023/05/22 13:40:58;;;;;;;2.67;1.38;;;24.90;47.00;;;;;;6209622;28;20424;-55
2023/05/22 13:43:59;;;;;;;2.55;1.48;;;25.00;47.00;;;;;;6214242;28;20065;-53
2023/05/22 13:47:01;;;;;;;2.00;1.40;;;24.90;47.20;;;;;;6214383;28;20046;-53
2023/05/22 13:50:04;;;;;;;1.80;1.50;;;25.00;47.20;;;;;;6212692;28;20094;-56
2023/05/22 13:53:06;;;;;;;2.33;1.40;;;25.00;46.80;;;;;;6209077;28;20073;-52
2023/05/22 13:56:09;;;;;;;2.13;1.38;;;25.00;46.80;;;;;;6207592;28;20104;-52
2023/05/22 13:59:10;;;;;;;3.55;1.30;;;24.60;46.60;;;;;;6192645;28;20050;-51
2023/05/22 14:02:14;;;;;;;2.08;1.33;;;25.00;47.10;;;;;;6189196;28;20039;-52
2023/05/22 14:05:15;;;;;;;2.17;1.58;;;25.10;46.80;;;;;;6183097;28;20038;-48
2023/05/22 14:08:17;;;;;;;2.50;1.63;;;25.10;47.00;;;;;;6177118;28;20735;-52
2023/05/22 14:11:18;;;;;;;2.85;1.80;;;25.10;46.70;;;;;;6179256;28;20573;-53
2023/05/22 14:14:22;;;;;;;3.85;1.67;;;25.00;46.60;;;;;;6183642;28;20030;-52
2023/05/22 14:17:24;;;;;;;2.88;1.58;;;25.00;58.80;;;;;;6179193;28;20046;-54
2023/05/22 14:20:26;;;;;;;3.67;2.40;;;25.00;46.40;;;;;;6176597;28;20859;-53
2023/05/22 14:23:27;;;;;;;4.22;2.33;;;25.20;46.60;;;;;;6147349;28;20038;-53
2023/05/22 14:26:29;;;;;;;4.65;2.55;;;24.50;46.70;;;;;;6127146;28;20038;-55
2023/05/22 14:29:30;;;;;;;2.92;2.13;;;25.10;48.70;;;;;;6160037;28;20049;-55
2023/05/22 14:32:32;;;;;;;3.38;2.00;;;25.80;49.80;;;;;;6134011;28;20778;-54
2023/05/22 14:35:34;;;;;;;2.55;1.45;;;25.10;50.60;;;;;;6149256;28;20027;-52
2023/05/22 14:38:36;;;;;;;2.67;1.20;;;25.30;50.50;;;;;;6128900;28;20038;-54
2023/05/22 14:41:38;;;;;;;1.60;1.10;;;25.10;50.20;;;;;;6154687;28;20030;-52
2023/05/22 14:44:39;;;;;;;1.40;1.15;;;25.20;50.00;;;;;;6211026;28;20676;-53
2023/05/22 14:47:42;;;;;;;1.50;0.93;;;25.30;49.80;;;;;;6169945;28;20039;-53
2023/05/22 14:50:44;;;;;;;1.00;0.90;;;25.30;50.00;;;;;;6153137;28;20042;-54
2023/05/22 14:53:48;;;;;;;1.92;1.05;;;25.30;49.60;;;;;;6177392;28;20275;-52
2023/05/22 14:56:49;;;;;;;1.08;0.90;;;25.30;50.00;;;;;;6181069;28;20567;-54
2023/05/22 14:59:51;;;;;;;1.00;0.90;;;25.20;50.00;;;;;;6169407;28;20194;-54
2023/05/22 15:02:53;;;;;;;1.10;0.80;;;25.00;49.50;;;;;;6183480;28;20034;-53
2023/05/22 15:05:56;;;;;;;0.70;0.60;;;25.20;49.50;;;;;;6185586;28;20026;-56
2023/05/22 15:08:58;;;;;;;0.63;0.60;;;25.30;49.60;;;;;;6161988;28;20046;-54
2023/05/22 15:11:59;;;;;;;0.75;0.60;;;25.40;49.60;;;;;;6149674;28;20061;-55
2023/05/22 15:15:01;;;;;;;0.57;0.57;;;25.20;49.60;;;;;;6179177;28;20043;-52
2023/05/22 15:18:06;;;;;;;2.88;1.20;;;25.30;49.60;;;;;;6157442;28;20031;-55
2023/05/22 15:21:07;;;;;;;2.40;1.52;;;25.30;50.00;;;;;;6194086;28;20125;-58
2023/05/22 15:24:10;;;;;;;1.40;1.08;;;26.60;50.50;;;;;;6135047;28;20034;-52
2023/05/22 15:27:16;;;;;;;1.00;0.90;;;23.60;48.40;;;;;;6118108;28;20026;-53
2023/05/22 15:30:17;;;;;;;2.38;0.90;;;25.40;47.80;;;;;;6133533;28;20093;-55
2023/05/22 15:33:22;;;;;;;2.15;1.33;;;25.20;49.10;;;;;;6153672;28;20034;-56
2023/05/22 15:36:23;;;;;;;3.70;1.35;;;25.30;48.70;;;;;;6148421;28;20752;-56
2023/05/22 15:39:25;;;;;;;1.10;1.00;;;25.40;48.90;;;;;;6149888;28;20046;-52
2023/05/22 15:42:27;;;;;;;1.58;0.73;;;25.10;48.70;;;;;;6168819;28;20034;-56
2023/05/22 15:45:29;;;;;;;1.40;0.80;;;25.20;48.80;;;;;;6160730;28;20745;-55
2023/05/22 15:48:31;;;;;;;1.38;0.90;;;25.30;48.70;;;;;;6154125;28;20050;-55
2023/05/22 15:51:34;;;;;;;1.00;0.90;;;25.30;48.80;;;;;;6158193;28;20042;-56
2023/05/22 15:54:35;;;;;;;0.80;0.70;;;25.40;48.60;;;;;;6167429;28;20065;-54
2023/05/22 15:57:37;;;;;;;0.63;0.57;;;25.30;49.00;;;;;;6160942;28;20030;-56
2023/05/22 16:00:39;;;;;;;0.70;0.50;;;25.30;49.10;;;;;;6170014;28;20035;-55
2023/05/22 16:03:41;;;;;;;0.45;0.43;;;25.10;49.20;;;;;;6165439;28;20729;-55